Terminal Aerodrome Forecast
Issued by NWS Green Bay, WI

Home | Current Version | Previous Version | Graphics & Text | Print | Product List | Glossary On
Versions: 1 2 3 4 5 6 7 8 9 10 11 12 13 14 15 16 17 18 19 20 21 22 23 24
000
FTUS43 KGRB 080520
TAFGRB
TAF
KGRB 080520Z 0806/0906 24010G16KT P6SM BKN100
     FM081100 25010G15KT P6SM -SHSN BKN028
     FM081700 27011G17KT P6SM BKN035
     FM090100 27006KT 2SM -SN OVC024=

USA.gov is the U.S. government's official web portal to all federal, state and local government web resources and services.